Lyndon Township, Michigan
Current Conditions -  °F | °C
As of 4:53 AM on Thursday 27 Nov 2014 (Local Time) from KARB Reporting Station
Overcast Overcast  
Wind Chill: 21°   Ceiling: 4800
Heat Index: 28°   Visibility: 10mi
Dew Point: 19°   Wind: 7mph
Humidity: 69%   Direction: 340°NNW
Pressure: 30.1"   Gusts: NA
Location:  42.3129°N, 84.0322°W
Report Text: KARB 270953Z AUTO 34006KT 10SM OVC048 M02/M07 A3010 RMK AO2 SLP203 T10221072
Loading
Personal Weather Stations






























Interactive Weather Map New forecast layout! Learn more

10-Day Weather Forecast

Advertisements
Track Severe Weather on mobile